Latest Coastal Weather Observations for Milingimbi

IDD60701

Issued at 2:21 am CST Sunday 31 July 2016 (issued every 10 minutes, with the page automatically refreshed every 10 minutes)

About coastal observations | Map of coastal stations | Coastal observations for NT | Marine services | Other Formats
Station Details ID: 014404 Name: MILINGIMBI AIRPORT Lat: -12.09 Lon: 134.89 Height: 15.0 m
Data from the previous 72 hours. | See also: Recent months at Milingimbi
Date/Time
CST
Temp
°C
Wind Pressure Rain since
9am
mm
Weather Cloud Vis
km
Sea
Height
m
Swell
Dir  Spd
kts
Gust
kts
hPa Trend Height
m
Period
s
Dir
31/02:00am 21.7 SSE 5 7 1012.8 - 0.0 - - - - - - -
31/01:30am 22.2 SE 7 9 1013.2 - 0.0 - - - - - - -
31/01:00am 22.6 SE 8 11 1013.1 - 0.0 - - - - - - -
31/12:30am 23.1 SE 9 13 1013.2 - 0.0 - - - - - - -
31/12:00am 23.2 SE 9 11 1012.9 - 0.0 - - - - - - -
 
Date/Time
CST
Temp
°C
Wind Pressure Rain since
9am
mm
Weather Cloud Vis
km
Sea
Height
m
Swell
Dir  Spd
kts
Gust
kts
hPa Trend Height
m
Period
s
Dir
30/11:30pm 23.8 SE 10 13 1013.2 - 0.0 - - - - - - -
30/11:00pm 24.2 SE 9 11 1013.1 - 0.0 - - - - - - -
30/10:30pm 24.7 SE 10 12 1013.0 - 0.0 - - - - - - -
30/10:00pm 25.4 SE 11 15 1012.7 - 0.0 - - - - - - -
30/09:30pm 25.9 ESE 10 16 1012.5 - 0.0 - - - - - - -
30/09:00pm 26.5 SE 12 17 1012.2 - 0.0 - - - - - - -
30/08:30pm 27.0 SE 12 16 1012.0 - 0.0 - - - - - - -
30/08:00pm 27.2 SE 10 13 1011.7 - 0.0 - - - - - - -
30/07:30pm 26.2 E 4 6 1011.3 - 0.0 - - - - - - -
30/07:00pm 26.6 ENE 3 5 1010.8 - 0.0 - - - - - - -
30/06:30pm 27.3 ENE 4 6 1010.3 - 0.0 - - - - - - -
30/06:00pm 28.5 ENE 5 7 1009.9 - 0.0 - - - - - - -
30/05:30pm 29.2 ENE 6 9 1009.8 - 0.0 - - - - - - -
30/05:00pm 30.9 E 6 9 1009.6 - 0.0 - - - - - - -
30/04:30pm 30.7 E 7 13 1009.6 - 0.0 - - - - - - -
30/04:00pm 31.5 E 9 14 1009.6 - 0.0 - - - - - - -
30/03:30pm 31.5 E 9 13 1009.7 - 0.0 - - - - - - -
30/03:00pm 31.5 E 11 17 1009.8 - 0.0 - - - - - - -
30/02:30pm 31.7 ESE 11 16 1010.2 - 0.0 - - - - - - -
30/02:00pm 31.3 E 10 16 1010.6 - 0.0 - - - - - - -
30/01:30pm 31.6 ESE 10 17 1011.0 - 0.0 - - - - - - -
30/01:00pm 31.3 ESE 11 16 1011.6 - 0.0 - - - - - - -
30/12:30pm 32.2 ESE 11 15 1012.0 - 0.0 - - - - - - -
30/12:00pm 30.7 ESE 11 16 1012.3 - 0.0 - - - - - - -
30/11:30am 30.5 SE 12 17 1012.8 - 0.0 - - - - - - -
30/11:00am 30.2 SE 13 18 1013.3 - 0.0 - - - - - - -
30/10:30am 29.2 SE 13 19 1013.7 - 0.0 - - - - - - -
30/10:00am 27.4 SE 15 20 1013.9 - 0.0 - - - - - - -
30/09:30am 26.2 SE 13 23 1014.3 - 0.0 - - - - - - -
30/09:00am 25.5 SSE 12 17 1014.1 - 0.0 - - - - - - -
30/08:30am 23.7 SSE 10 13 1014.0 - 0.0 - - - - - - -
30/08:00am 22.0 SSE 8 13 1014.1 - 0.0 - - - - - - -
30/07:30am 20.9 SSE 7 9 1013.6 - 0.0 - - - - - - -
30/07:00am 20.4 SSE 6 9 1013.2 - 0.0 - - - - - - -
30/06:30am 20.4 SSE 6 8 1012.9 - 0.0 - - - - - - -
30/06:00am 20.5 SSE 7 8 1012.6 - 0.0 - - - - - - -
30/05:30am 20.6 SE 6 8 1012.6 - 0.0 - - - - - - -
30/05:00am 20.9 SSE 6 10 1012.5 - 0.0 - - - - - - -
30/04:30am 20.7 SSE 5 7 1012.5 - 0.0 - - - - - - -
30/04:00am 21.0 S 5 7 1012.4 - 0.0 - - - - - - -
30/03:30am 21.2 SSE 7 9 1012.4 - 0.0 - - - - - - -
30/03:00am 21.4 SSE 7 9 1012.6 - 0.0 - - - - - - -
30/02:30am 21.6 SSE 7 11 1012.9 - 0.0 - - - - - - -
30/02:00am 21.7 SE 7 10 1013.2 - 0.0 - - - - - - -
30/01:30am 22.1 SSE 9 12 1013.3 - 0.0 - - - - - - -
30/01:00am 22.4 SE 8 11 1013.7 - 0.0 - - - - - - -
30/12:30am 22.6 SSE 9 13 1013.7 - 0.0 - - - - - - -
30/12:00am 22.9 SSE 7 10 1013.8 - 0.0 - - - - - - -
 
Date/Time
CST
Temp
°C
Wind Pressure Rain since
9am
mm
Weather Cloud Vis
km
Sea
Height
m
Swell
Dir  Spd
kts
Gust
kts
hPa Trend Height
m
Period
s
Dir
29/11:30pm 23.1 SE 7 9 1014.1 - 0.0 - - - - - - -
29/11:00pm 23.5 SSE 8 10 1014.2 - 0.0 - - - - - - -
29/10:30pm 24.0 SE 9 14 1014.3 - 0.0 - - - - - - -
29/10:00pm 24.3 SE 9 12 1014.1 - 0.0 - - - - - - -
29/09:30pm 24.7 SE 9 11 1014.1 - 0.0 - - - - - - -
29/09:00pm 25.1 SE 10 14 1013.5 - 0.0 - - - - - - -
29/08:30pm 25.5 SE 11 15 1013.2 - 0.0 - - - - - - -
29/08:00pm 26.1 SE 12 16 1012.6 - 0.0 - - - - - - -
29/07:30pm 26.5 SE 10 15 1012.1 - 0.0 - - - - - - -
29/07:00pm 27.2 SE 11 15 1011.6 - 0.0 - - - - - - -
29/06:30pm 27.7 SE 11 16 1011.2 - 0.0 - - - - - - -
29/06:00pm 28.1 ESE 12 16 1010.9 - 0.0 - - - - - - -
29/05:30pm 29.3 ESE 12 16 1010.8 - 0.0 - - - - - - -
29/05:00pm 29.8 ESE 11 15 1010.6 - 0.0 - - - - - - -
29/04:30pm 30.3 E 9 13 1010.4 - 0.0 - - - - - - -
29/04:00pm 31.2 ESE 10 15 1010.4 - 0.0 - - - - - - -
29/03:30pm 31.2 E 8 12 1010.6 - 0.0 - - - - - - -
29/03:00pm 31.0 ESE 9 14 1010.5 - 0.0 - - - - - - -
29/02:30pm 31.2 E 10 17 1011.0 - 0.0 - - - - - - -
29/02:00pm 30.5 E 11 16 1011.4 - 0.0 - - - - - - -
29/01:30pm 30.6 E 12 17 1011.9 - 0.0 - - - - - - -
29/01:00pm 30.9 ESE 10 16 1012.2 - 0.0 - - - - - - -
29/12:30pm 30.3 ESE 12 18 1012.5 - 0.0 - - - - - - -
29/12:00pm 30.5 ESE 14 19 1012.8 - 0.0 - - - - - - -
29/11:30am 29.4 ESE 15 21 1013.5 - 0.0 - - - - - - -
29/11:00am 29.7 SE 14 21 1013.9 - 0.0 - - - - - - -
29/10:30am 28.9 SE 14 20 1014.0 - 0.0 - - - - - - -
29/10:00am 28.1 SSE 14 19 1014.0 - 0.0 - - - - - - -
29/09:30am 27.3 SSE 13 20 1014.3 - 0.0 - - - - - - -
29/09:00am 26.0 SSE 10 15 1014.1 - 0.0 - - - - - - -
29/08:30am 24.8 SSE 10 16 1014.0 - 0.0 - - - - - - -
29/08:00am 23.5 SSE 9 15 1013.9 - 0.0 - - - - - - -
29/07:30am 22.4 SSE 8 11 1013.6 - 0.0 - - - - - - -
29/07:00am 21.6 SSE 7 9 1013.2 - 0.0 - - - - - - -
29/06:30am 21.3 SSE 7 10 1013.1 - 0.0 - - - - - - -
29/06:00am 21.4 SSE 8 10 1012.9 - 0.0 - - - - - - -
29/05:30am 21.5 SSE 7 9 1012.8 - 0.0 - - - - - - -
29/05:00am 21.4 SSE 7 9 1012.9 - 0.0 - - - - - - -
29/04:30am 21.4 SSE 5 7 1013.0 - 0.0 - - - - - - -
29/04:00am 21.6 S 7 10 1013.0 - 0.0 - - - - - - -
29/03:30am 21.8 S 7 9 1013.2 - 0.0 - - - - - - -
29/03:00am 21.8 SSE 7 9 1013.2 - 0.0 - - - - - - -
29/02:30am 21.8 S 6 8 1013.5 - 0.0 - - - - - - -
29/02:00am 22.0 S 7 13 1013.6 - 0.0 - - - - - - -
29/01:30am 22.4 S 8 11 1014.0 - 0.0 - - - - - - -
29/01:00am 22.9 SSE 9 13 1014.4 - 0.0 - - - - - - -
29/12:30am 23.3 SSE 8 14 1014.8 - 0.0 - - - - - - -
29/12:00am 23.7 SSE 10 14 1014.7 - 0.0 - - - - - - -
 
Date/Time
CST
Temp
°C
Wind Pressure Rain since
9am
mm
Weather Cloud Vis
km
Sea
Height
m
Swell
Dir  Spd
kts
Gust
kts
hPa Trend Height
m
Period
s
Dir
28/11:30pm 24.1 SSE 9 14 1014.9 - 0.0 - - - - - - -
28/11:00pm 24.3 SSE 10 14 1014.9 - 0.0 - - - - - - -
28/10:30pm 24.5 SSE 10 14 1014.9 - 0.0 - - - - - - -
28/10:00pm 24.5 SSE 8 9 1015.0 - 0.0 - - - - - - -
28/09:30pm 24.5 SSE 8 11 1014.8 - 0.0 - - - - - - -
28/09:00pm 24.6 SSE 9 12 1014.5 - 0.0 - - - - - - -
28/08:30pm 25.0 SSE 11 18 1014.6 - 0.0 - - - - - - -
28/08:00pm 25.3 SSE 11 15 1014.0 - 0.0 - - - - - - -
28/07:30pm 25.9 SE 13 18 1013.6 - 0.0 - - - - - - -
28/07:00pm 26.7 SE 13 17 1012.9 - 0.0 - - - - - - -
28/06:30pm 27.4 SE 12 18 1012.5 - 0.0 - - - - - - -
28/06:00pm 28.2 SE 12 16 1012.0 - 0.0 - - - - - - -
28/05:30pm 28.6 ESE 12 17 1011.5 - 0.0 - - - - - - -
28/05:00pm 29.3 ESE 9 14 1011.3 - 0.0 - - - - - - -
28/04:30pm 29.3 ESE 11 15 1010.9 - 0.0 - - - - - - -
28/04:00pm 29.8 ESE 11 16 1010.8 - 0.0 - - - - - - -
28/03:30pm 29.9 E 9 15 1011.0 - 0.0 - - - - - - -
28/03:00pm 31.1 ESE 9 14 1011.0 - 0.0 - - - - - - -
28/02:30pm 30.8 ESE 12 19 1011.3 - 0.0 - - - - - - -
28/02:00pm 30.5 ESE 14 19 1011.7 - 0.0 - - - - - - -
28/01:30pm 30.8 ESE 13 21 1012.2 - 0.0 - - - - - - -
28/01:00pm 30.8 ESE 15 22 1012.7 - 0.0 - - - - - - -
28/12:30pm 30.0 ESE 16 23 1013.2 - 0.0 - - - - - - -
28/12:00pm 29.1 ESE 15 22 1013.8 - 0.0 - - - - - - -
28/11:30am 29.4 ESE 16 22 1014.3 - 0.0 - - - - - - -
28/11:00am 28.3 SSE 14 21 1014.5 - 0.0 - - - - - - -
28/10:30am 28.1 SE 14 21 1014.8 - 0.0 - - - - - - -
28/10:00am 27.0 SE 14 19 1015.2 - 0.0 - - - - - - -
28/09:30am 24.8 SE 16 22 1015.3 - 0.0 - - - - - - -
28/09:00am 24.4 SSE 13 21 1015.4 - 0.0 - - - - - - -
28/08:30am 23.1 SSE 12 19 1015.3 - 0.0 - - - - - - -
28/08:00am 21.1 S 8 11 1015.0 - 0.0 - - - - - - -
28/07:30am 19.2 S 5 7 1014.9 - 0.0 - - - - - - -
28/07:00am 17.7 S 4 5 1014.4 - 0.0 - - - - - - -
28/06:30am 17.6 S 5 6 1014.2 - 0.0 - - - - - - -
28/06:00am 17.9 S 4 6 1014.0 - 0.0 - - - - - - -
28/05:30am 18.3 S 5 7 1013.9 - 0.0 - - - - - - -
28/05:00am 18.4 S 5 7 1013.8 - 0.0 - - - - - - -
28/04:30am 19.2 S 5 7 1013.7 - 0.0 - - - - - - -
28/04:00am 20.1 SSE 7 11 1013.8 - 0.0 - - - - - - -
28/03:30am 20.2 SSE 7 9 1013.9 - 0.0 - - - - - - -
28/03:00am 20.2 SSE 7 9 1013.8 - 0.0 - - - - - - -
28/02:30am 20.6 SSE 7 12 1014.1 - 0.0 - - - - - - -

Other Formats:

Comma delimited format used in spreadsheet applications
http://www.bom.gov.au/fwo/IDD60701/IDD60701.94140.axf

JavaScript Object Notation format (JSON) in row-major order
http://www.bom.gov.au/fwo/IDD60701/IDD60701.94140.json